createdAt,value
2018-11-22T00:00:52.017Z,58.91
2018-11-22T00:03:20.450Z,61.06
2018-11-22T00:05:48.989Z,60.21
2018-11-22T00:08:19.389Z,61.65
2018-11-22T00:10:51.000Z,61.77
2018-11-22T00:13:19.413Z,61.31
2018-11-22T00:15:49.316Z,60.41
2018-11-22T00:18:18.545Z,60.21
2018-11-22T00:20:47.061Z,59.61
2018-11-22T00:23:15.747Z,60.22
2018-11-22T00:25:44.275Z,59.06
2018-11-22T00:28:12.698Z,59.95
2018-11-22T00:30:43.272Z,59.94
2018-11-22T00:33:09.577Z,59.63
2018-11-22T00:35:38.023Z,59.49
2018-11-22T00:38:09.619Z,59.37
2018-11-22T00:40:39.762Z,59.14
2018-11-22T00:43:08.208Z,58.87
2018-11-22T00:45:38.176Z,60.31
2018-11-22T00:48:06.672Z,59.97
2018-11-22T00:50:41.208Z,60.15
2018-11-22T00:53:12.695Z,60.22
2018-11-22T00:55:41.124Z,60.42
2018-11-22T00:58:11.081Z,59.65
2018-11-22T01:00:40.052Z,61.16
2018-11-22T01:03:20.553Z,60.92
2018-11-22T01:05:50.470Z,61.86
2018-11-22T01:08:18.724Z,61.47
2018-11-22T01:10:48.544Z,61.88
2018-11-22T01:13:21.497Z,62.43
2018-11-22T01:15:50.379Z,62.42
2018-11-22T01:18:20.548Z,61.87
2018-11-22T01:20:49.759Z,61.59
2018-11-22T01:23:28.285Z,59.56
2018-11-22T01:26:02.647Z,59.07
2018-11-22T01:28:33.158Z,60.45
2018-11-22T01:31:01.589Z,59.65
2018-11-22T01:33:33.295Z,60.13
2018-11-22T01:36:03.060Z,59.34
2018-11-22T01:38:30.176Z,59.57
2018-11-22T01:40:58.603Z,59.66
2018-11-22T01:43:33.205Z,59.81
2018-11-22T01:46:01.634Z,60.82
2018-11-22T01:48:30.174Z,59.73
2018-11-22T01:51:01.299Z,60.55
2018-11-22T01:53:34.820Z,59.82
2018-11-22T01:56:03.228Z,59.81
2018-11-22T01:58:31.688Z,59.15
2018-11-22T02:01:01.035Z,59.05
2018-11-22T02:03:30.593Z,59.42
2018-11-22T02:06:02.025Z,59.66
2018-11-22T02:08:30.555Z,59.82
2018-11-22T02:11:01.577Z,60.63
2018-11-22T02:13:30.016Z,59.40
2018-11-22T02:15:58.478Z,59.70
2018-11-22T02:18:29.149Z,60.77
2018-11-22T02:21:00.540Z,62.25
2018-11-22T02:23:29.005Z,60.55
2018-11-22T02:25:58.567Z,59.64
2018-11-22T02:28:27.001Z,59.56
2018-11-22T02:30:55.442Z,59.86
2018-11-22T02:33:23.899Z,59.47
2018-11-22T02:35:53.908Z,59.44
2018-11-22T02:38:23.114Z,59.66
2018-11-22T02:40:51.605Z,59.31
2018-11-22T02:43:23.875Z,60.47
2018-11-22T02:45:52.370Z,58.93
2018-11-22T02:48:20.881Z,60.87
2018-11-22T02:50:49.305Z,58.29
2018-11-22T02:53:19.566Z,58.44
2018-11-22T02:55:48.001Z,59.15
2018-11-22T02:58:16.476Z,58.40
2018-11-22T03:00:46.052Z,58.01
2018-11-22T03:03:17.597Z,59.88
2018-11-22T03:05:47.046Z,60.52
2018-11-22T03:08:16.296Z,58.76
2018-11-22T03:10:44.731Z,58.84
2018-11-22T03:13:17.740Z,58.58
2018-11-22T03:15:46.149Z,59.09
2018-11-22T03:18:14.910Z,59.65
2018-11-22T03:20:43.428Z,59.08
2018-11-22T03:23:14.449Z,58.76
2018-11-22T03:25:44.662Z,58.43
2018-11-22T03:28:13.117Z,61.37
2018-11-22T03:30:41.884Z,59.03
2018-11-22T03:33:10.336Z,58.15
2018-11-22T03:35:38.827Z,58.85
2018-11-22T03:38:07.357Z,58.67
2018-11-22T03:40:35.766Z,59.26
2018-11-22T03:43:04.219Z,59.25
2018-11-22T03:45:33.064Z,58.49
2018-11-22T03:48:08.853Z,58.91
2018-11-22T03:50:37.316Z,59.54
2018-11-22T03:53:06.073Z,58.75
2018-11-22T03:55:34.500Z,59.50
2018-11-22T03:58:05.590Z,60.02
2018-11-22T04:00:34.036Z,59.95
2018-11-22T04:03:02.915Z,59.60
2018-11-22T04:05:31.360Z,59.68
2018-11-22T04:07:59.786Z,61.72
2018-11-22T04:10:29.633Z,60.84
2018-11-22T04:13:02.557Z,59.84
2018-11-22T04:15:32.009Z,59.46
2018-11-22T04:18:01.414Z,58.53
2018-11-22T04:20:32.057Z,59.85
2018-11-22T04:23:00.755Z,59.53
2018-11-22T04:25:29.230Z,59.45
2018-11-22T04:27:57.691Z,60.58
2018-11-22T04:30:29.332Z,60.12
2018-11-22T04:32:57.775Z,59.30
2018-11-22T04:35:30.766Z,59.88
2018-11-22T04:37:59.281Z,61.18
2018-11-22T04:40:30.562Z,60.46
2018-11-22T04:42:57.909Z,59.95
2018-11-22T04:45:26.457Z,60.15
2018-11-22T04:47:56.392Z,60.35
2018-11-22T04:50:27.935Z,60.41
2018-11-22T04:52:55.424Z,60.92
2018-11-22T04:55:24.171Z,61.31
2018-11-22T04:57:52.725Z,60.68
2018-11-22T05:00:24.016Z,59.80
2018-11-22T05:02:52.878Z,61.05
2018-11-22T05:05:25.802Z,60.38
2018-11-22T05:07:57.197Z,60.32
2018-11-22T05:10:29.040Z,60.12
2018-11-22T05:12:55.953Z,60.88
2018-11-22T05:15:26.945Z,60.44
2018-11-22T05:17:55.408Z,62.37
2018-11-22T05:20:24.370Z,60.59
2018-11-22T05:22:56.705Z,60.54
2018-11-22T05:25:26.939Z,59.14
2018-11-22T05:27:55.384Z,59.20
2018-11-22T05:30:25.560Z,59.18
2018-11-22T05:32:54.261Z,58.75
2018-11-22T05:35:24.763Z,59.01
2018-11-22T05:37:53.332Z,59.52
2018-11-22T05:40:23.200Z,59.38
2018-11-22T05:42:51.703Z,60.67
2018-11-22T05:45:24.896Z,58.63
2018-11-22T05:47:55.263Z,58.92
2018-11-22T05:50:25.561Z,58.69
2018-11-22T05:52:55.346Z,59.12
2018-11-22T05:55:27.459Z,59.58
2018-11-22T05:57:58.770Z,59.82
2018-11-22T06:00:31.584Z,59.88
2018-11-22T06:03:01.222Z,60.67
2018-11-22T06:05:32.556Z,59.05
2018-11-22T06:08:01.027Z,58.86
2018-11-22T06:10:34.053Z,58.41
2018-11-22T06:13:21.219Z,58.55
2018-11-22T06:15:49.726Z,59.22
2018-11-22T06:18:19.839Z,59.13
2018-11-22T06:20:48.308Z,60.26
2018-11-22T06:23:18.439Z,59.04
2018-11-22T06:25:46.080Z,57.90
2018-11-22T06:28:14.980Z,59.04
2018-11-22T06:30:45.118Z,58.59
2018-11-22T06:33:13.617Z,59.17
2018-11-22T06:35:43.571Z,59.54
2018-11-22T06:38:12.103Z,59.87
2018-11-22T06:40:41.463Z,60.47
2018-11-22T06:43:16.027Z,60.76
2018-11-22T06:45:45.269Z,61.12
2018-11-22T06:48:14.044Z,61.38
2018-11-22T06:50:42.615Z,61.69
2018-11-22T06:53:10.937Z,61.56
2018-11-22T06:55:39.541Z,60.51
2018-11-22T06:58:08.033Z,59.02
2018-11-22T07:00:40.756Z,58.88
2018-11-22T07:03:11.402Z,59.35
2018-11-22T07:05:41.452Z,59.78
2018-11-22T07:08:08.494Z,59.82
2018-11-22T07:10:36.871Z,59.65
2018-11-22T07:13:09.428Z,58.56
2018-11-22T07:15:38.011Z,59.33
2018-11-22T07:18:06.482Z,58.13
2018-11-22T07:20:37.896Z,57.41
2018-11-22T07:23:06.633Z,57.71
2018-11-22T07:25:37.397Z,56.95
2018-11-22T07:28:08.569Z,57.03
2018-11-22T07:30:42.310Z,56.49
2018-11-22T07:33:07.552Z,56.74
2018-11-22T07:35:39.464Z,57.41
2018-11-22T07:38:09.081Z,56.60
2018-11-22T07:40:40.041Z,57.45
2018-11-22T07:43:11.346Z,59.31
2018-11-22T07:45:44.105Z,58.04
2018-11-22T07:48:15.703Z,59.09
2018-11-22T07:50:46.901Z,57.92
2018-11-22T07:53:13.337Z,58.48
2018-11-22T07:55:41.756Z,58.83
2018-11-22T07:58:15.745Z,58.38
2018-11-22T08:00:44.234Z,56.83
2018-11-22T08:03:16.311Z,57.67
2018-11-22T08:05:47.211Z,58.72
2018-11-22T08:08:15.649Z,59.44
2018-11-22T08:10:44.152Z,59.94
2018-11-22T08:13:20.998Z,57.95
2018-11-22T08:15:51.867Z,58.96
2018-11-22T08:18:32.291Z,57.68
2018-11-22T08:21:04.929Z,56.28
2018-11-22T08:23:31.287Z,58.43
2018-11-22T08:26:03.043Z,57.06
2018-11-22T08:28:32.108Z,58.47
2018-11-22T08:31:08.431Z,57.18
2018-11-22T08:33:37.330Z,55.63
2018-11-22T08:36:08.240Z,55.43
2018-11-22T08:38:37.032Z,55.41
2018-11-22T08:41:07.354Z,56.07
2018-11-22T08:43:35.827Z,57.02
2018-11-22T08:46:07.954Z,58.09
2018-11-22T08:48:41.034Z,56.69
2018-11-22T08:51:11.385Z,58.33
2018-11-22T08:53:45.331Z,58.07
2018-11-22T12:16:53.616Z,48.54
2018-11-22T12:19:23.842Z,49.66
2018-11-22T12:21:52.441Z,49.56
2018-11-22T12:24:22.865Z,49.84
2018-11-22T12:26:52.937Z,49.04
2018-11-22T12:29:22.819Z,49.31
2018-11-22T12:31:53.362Z,49.16
2018-11-22T12:34:25.402Z,48.52
2018-11-22T12:37:01.730Z,48.25
2018-11-22T12:39:30.944Z,47.99
2018-11-22T12:42:00.526Z,48.08
2018-11-22T12:44:30.616Z,48.97
2018-11-22T12:47:01.108Z,49.87
2018-11-22T12:49:31.581Z,49.61
2018-11-22T12:52:02.713Z,48.76
2018-11-22T12:54:33.200Z,49.05
2018-11-22T12:57:03.082Z,48.72
2018-11-22T12:59:33.808Z,49.16
2018-11-22T13:02:05.908Z,49.02
2018-11-22T13:04:35.903Z,48.20
2018-11-22T13:07:07.266Z,48.01
2018-11-22T13:09:38.950Z,48.81
2018-11-22T13:12:08.504Z,49.42
2018-11-22T13:14:37.681Z,49.86
2018-11-22T13:17:08.086Z,50.72
2018-11-22T13:19:36.859Z,51.00
2018-11-22T13:22:07.964Z,51.62
2018-11-22T13:24:39.156Z,50.82
2018-11-22T13:27:08.984Z,50.93
2018-11-22T13:29:38.538Z,51.29
2018-11-22T13:32:08.197Z,51.27
2018-11-22T13:34:38.266Z,51.57
2018-11-22T13:37:08.034Z,51.61
2018-11-22T13:39:37.508Z,51.65
2018-11-22T13:42:07.391Z,51.93
2018-11-22T13:44:37.058Z,52.66
2018-11-22T13:47:07.009Z,52.45
2018-11-22T13:49:36.708Z,53.11
2018-11-22T13:52:12.684Z,52.37
2018-11-22T13:54:42.427Z,52.27
2018-11-22T13:57:12.399Z,52.81
2018-11-22T13:59:48.674Z,52.04
2018-11-22T14:02:19.554Z,51.52
2018-11-22T14:04:50.031Z,51.19
2018-11-22T14:07:20.504Z,50.54
2018-11-22T14:09:50.635Z,50.14
2018-11-22T14:12:22.255Z,50.00
2018-11-22T14:14:51.586Z,50.33
2018-11-22T14:17:25.023Z,50.16
2018-11-22T14:19:55.666Z,50.79
2018-11-22T14:22:24.824Z,50.68
2018-11-22T14:24:55.467Z,51.50
2018-11-22T14:27:25.757Z,51.49
2018-11-22T14:29:55.554Z,51.08
2018-11-22T14:32:25.739Z,50.85
2018-11-22T14:35:00.420Z,50.90
2018-11-22T14:37:24.959Z,51.37
2018-11-22T14:39:53.538Z,52.05
2018-11-22T14:42:24.003Z,52.37
2018-11-22T14:44:53.383Z,50.75
2018-11-22T14:47:22.559Z,50.55
2018-11-22T14:49:52.593Z,51.10
2018-11-22T14:52:23.854Z,51.06
2018-11-22T14:54:54.239Z,51.72
2018-11-22T14:57:23.876Z,52.26
2018-11-22T14:59:52.786Z,52.46
2018-11-22T15:02:23.341Z,52.96
2018-11-22T15:04:53.673Z,53.05
2018-11-22T15:07:28.591Z,53.14
2018-11-22T15:09:53.202Z,53.84
2018-11-22T15:12:24.156Z,53.70
2018-11-22T15:14:54.709Z,54.97
2018-11-22T15:17:24.739Z,54.57
2018-11-22T15:19:54.701Z,54.54
2018-11-22T15:22:23.935Z,55.05
2018-11-22T15:24:54.576Z,55.14
2018-11-22T15:27:24.141Z,54.54
2018-11-22T15:29:53.762Z,54.19
2018-11-22T15:32:23.861Z,53.77
2018-11-22T15:35:08.175Z,53.58
2018-11-22T15:37:38.474Z,53.49
2018-11-22T15:40:10.428Z,53.08
2018-11-22T15:42:40.416Z,53.14
2018-11-22T15:45:11.361Z,53.22
2018-11-22T15:47:40.461Z,52.75
2018-11-22T15:50:12.261Z,52.80
2018-11-22T15:52:42.129Z,53.98
2018-11-22T15:55:20.428Z,54.21
2018-11-22T15:57:46.035Z,54.31
2018-11-22T16:00:19.767Z,55.28
2018-11-22T16:02:49.926Z,54.63
2018-11-22T16:05:20.435Z,54.26
2018-11-22T16:07:50.461Z,54.28
2018-11-22T16:10:26.899Z,54.46
2018-11-22T16:12:53.541Z,54.41
2018-11-22T16:15:32.787Z,54.41
2018-11-22T16:18:02.887Z,54.40
2018-11-22T16:20:32.982Z,54.71
2018-11-22T16:23:02.604Z,54.40
2018-11-22T16:25:31.636Z,54.80
2018-11-22T16:28:00.647Z,55.01
2018-11-22T16:30:31.319Z,55.02
2018-11-22T16:33:02.112Z,55.38
2018-11-22T16:35:33.358Z,54.95
2018-11-22T16:38:01.752Z,54.57
2018-11-22T16:40:31.144Z,54.97
2018-11-22T16:43:02.815Z,53.96
2018-11-22T16:45:34.368Z,52.82
2018-11-22T16:48:05.346Z,53.49
2018-11-22T16:50:35.618Z,53.47
2018-11-22T16:53:04.696Z,52.29
2018-11-22T16:55:33.565Z,53.71
2018-11-22T16:58:03.669Z,53.57
2018-11-22T17:00:35.926Z,52.58
2018-11-22T17:03:07.815Z,52.11
2018-11-22T17:05:37.374Z,52.49
2018-11-22T17:08:07.084Z,53.13
2018-11-22T17:10:37.182Z,52.53
2018-11-22T17:13:09.667Z,52.31
2018-11-22T17:15:40.138Z,52.48
2018-11-22T17:18:10.721Z,52.17
2018-11-22T17:20:40.277Z,52.63
2018-11-22T17:23:10.799Z,52.79
2018-11-22T17:25:40.113Z,53.22
2018-11-22T17:28:10.496Z,53.58
2018-11-22T17:30:41.950Z,54.19
2018-11-22T17:33:10.768Z,54.24
2018-11-22T17:35:40.680Z,52.64
2018-11-22T17:38:10.703Z,55.84
2018-11-22T17:40:41.488Z,57.46
2018-11-22T17:43:11.877Z,58.38
2018-11-22T17:45:43.898Z,59.13
2018-11-22T17:48:13.680Z,59.37
2018-11-22T17:50:43.714Z,58.68
2018-11-22T17:53:15.039Z,59.27
2018-11-22T17:55:46.655Z,58.88
2018-11-22T17:58:16.864Z,59.94
2018-11-22T18:00:49.315Z,59.71
2018-11-22T18:03:19.391Z,58.91
2018-11-22T18:05:50.314Z,58.25
2018-11-22T18:08:19.931Z,57.71
2018-11-22T18:10:49.540Z,60.18
2018-11-22T18:13:19.565Z,61.15
2018-11-22T18:15:54.537Z,60.63
2018-11-22T18:18:23.123Z,61.10
2018-11-22T18:20:51.721Z,62.16
2018-11-22T18:23:20.770Z,62.14
2018-11-22T18:25:50.090Z,61.91
2018-11-22T18:28:19.877Z,61.77
2018-11-22T18:30:50.961Z,61.03
2018-11-22T18:33:20.014Z,61.49
2018-11-22T18:37:18.623Z,62.14
2018-11-22T18:39:47.761Z,60.36
2018-11-22T18:42:17.522Z,59.83
2018-11-22T18:44:47.857Z,57.68
2018-11-22T18:47:19.953Z,57.43
2018-11-22T18:49:48.546Z,56.72
2018-11-22T18:52:17.417Z,56.91
2018-11-22T18:54:48.059Z,56.53
2018-11-22T18:57:17.088Z,55.54
2018-11-22T18:59:45.623Z,54.38
2018-11-22T19:02:16.244Z,55.77
2018-11-22T19:04:45.765Z,58.01
2018-11-22T19:07:14.810Z,59.04
2018-11-22T19:09:43.966Z,59.15
2018-11-22T19:12:12.524Z,58.75
2018-11-22T19:14:41.960Z,57.72
2018-11-22T19:17:12.877Z,58.93
2018-11-22T19:19:43.341Z,58.61
2018-11-22T19:22:12.365Z,60.36
2018-11-22T19:24:41.641Z,60.78
2018-11-22T19:27:10.482Z,60.07
2018-11-22T19:29:42.141Z,60.17
2018-11-22T19:32:11.401Z,58.69
2018-11-22T19:34:41.658Z,57.81
2018-11-22T19:37:11.057Z,58.24
2018-11-22T19:39:40.649Z,57.48
2018-11-22T19:42:10.150Z,58.77
2018-11-22T19:44:40.725Z,58.67
2018-11-22T19:47:11.300Z,59.95
2018-11-22T19:49:47.760Z,59.81
2018-11-22T19:52:22.941Z,62.15
2018-11-22T19:54:52.997Z,61.43
2018-11-22T19:57:22.729Z,60.46
2018-11-22T19:59:52.440Z,61.24
2018-11-22T20:02:24.190Z,62.03
2018-11-22T20:04:53.813Z,62.06
2018-11-22T20:07:22.445Z,63.75
2018-11-22T20:09:53.317Z,64.11
2018-11-22T20:12:22.869Z,63.11
2018-11-22T20:14:52.308Z,62.87
2018-11-22T20:17:22.663Z,62.79
2018-11-22T20:19:52.046Z,63.93
2018-11-22T20:22:20.886Z,60.84
2018-11-22T20:24:50.741Z,59.84
2018-11-22T20:27:20.409Z,61.81
2018-11-22T20:29:51.313Z,61.69
2018-11-22T20:32:20.638Z,61.92
2018-11-22T20:34:49.501Z,59.98
2018-11-22T20:37:19.929Z,59.14
2018-11-22T20:39:50.303Z,60.14
2018-11-22T20:42:19.785Z,61.21
2018-11-22T20:44:48.413Z,61.78
2018-11-22T20:47:19.770Z,61.88
2018-11-22T20:49:54.273Z,63.04
2018-11-22T20:52:25.518Z,62.71
2018-11-22T20:54:54.290Z,63.03
2018-11-22T20:57:24.571Z,63.50
2018-11-22T20:59:54.347Z,64.50
2018-11-22T21:02:26.674Z,63.77
2018-11-22T21:04:56.238Z,64.23
2018-11-22T21:07:25.799Z,66.06
2018-11-22T21:09:54.981Z,66.99
2018-11-22T21:12:25.881Z,66.64
2018-11-22T21:14:55.061Z,65.55
2018-11-22T21:17:24.217Z,63.62
2018-11-22T21:19:53.776Z,62.90
2018-11-22T21:22:23.668Z,62.20
2018-11-22T21:24:52.789Z,61.88
2018-11-22T21:27:24.309Z,63.87
2018-11-22T21:29:55.041Z,64.38
2018-11-22T21:32:25.502Z,64.86
2018-11-22T21:34:55.412Z,66.34
2018-11-22T21:37:25.100Z,68.14
2018-11-22T21:39:54.015Z,68.65
2018-11-22T21:42:23.114Z,68.39
2018-11-22T21:44:52.917Z,68.26
2018-11-22T21:47:23.648Z,69.94
2018-11-22T21:49:53.973Z,68.69
2018-11-22T21:52:24.472Z,70.61
2018-11-22T21:54:54.014Z,70.71
2018-11-22T21:57:26.749Z,70.67
2018-11-22T21:59:58.443Z,69.38
2018-11-22T22:02:27.004Z,68.23
2018-11-22T22:04:57.538Z,67.42
2018-11-22T22:07:28.414Z,66.92
2018-11-22T22:09:58.749Z,68.91
2018-11-22T22:12:27.308Z,68.96
2018-11-22T22:14:55.904Z,68.53
2018-11-22T22:17:25.067Z,68.36
2018-11-22T22:19:56.191Z,67.65
2018-11-22T22:22:28.208Z,67.59
2018-11-22T22:24:59.626Z,68.18
2018-11-22T22:27:28.925Z,67.96
2018-11-22T22:29:57.736Z,68.00
2018-11-22T22:32:26.588Z,68.47
2018-11-22T22:34:55.129Z,68.13
2018-11-22T22:37:24.700Z,68.73
2018-11-22T22:40:03.548Z,69.50
2018-11-22T22:42:28.410Z,70.29
2018-11-22T22:44:58.749Z,69.87
2018-11-22T22:47:27.341Z,70.01
2018-11-22T22:49:57.009Z,70.70
2018-11-22T22:52:26.924Z,71.16
2018-11-22T22:54:56.944Z,71.61
2018-11-22T22:57:28.112Z,71.41
2018-11-22T22:59:58.015Z,70.69
2018-11-22T23:02:27.335Z,71.10
2018-11-22T23:04:56.400Z,70.53
2018-11-22T23:07:26.729Z,69.86
2018-11-22T23:09:55.264Z,69.73
2018-11-22T23:12:25.045Z,71.10
2018-11-22T23:14:56.574Z,71.09
2018-11-22T23:17:25.179Z,69.51
2018-11-22T23:20:00.976Z,68.13
2018-11-22T23:22:31.138Z,67.85
2018-11-22T23:25:01.717Z,67.58
2018-11-22T23:27:32.405Z,66.56
2018-11-22T23:30:03.232Z,66.38
2018-11-22T23:32:34.277Z,65.96
2018-11-22T23:35:04.136Z,66.09
2018-11-22T23:37:32.931Z,65.33
2018-11-22T23:40:01.717Z,66.97
2018-11-22T23:42:30.491Z,68.11
2018-11-22T23:45:00.081Z,67.87
2018-11-22T23:47:29.184Z,67.32
2018-11-22T23:49:58.321Z,66.32
2018-11-22T23:52:28.870Z,65.52
2018-11-22T23:54:57.797Z,65.52
2018-11-22T23:57:27.460Z,67.03
2018-11-22T23:59:57.503Z,66.39
